createdAt,value
2022-11-13T00:02:07.627Z,0.70
2022-11-13T00:07:28.949Z,0.56
2022-11-13T00:12:50.774Z,0.36
2022-11-13T00:18:13.406Z,0.59
2022-11-13T00:23:36.656Z,0.45
2022-11-13T00:28:59.942Z,-0.14
2022-11-13T00:40:04.037Z,0.43
2022-11-13T00:45:25.642Z,0.42
2022-11-13T00:50:48.998Z,0.29
2022-11-13T00:56:10.221Z,0.30
2022-11-13T01:01:31.893Z,0.30
2022-11-13T01:06:55.391Z,0.20
2022-11-13T01:12:17.022Z,-0.02
2022-11-13T01:17:38.633Z,0.09
2022-11-13T01:23:01.163Z,-0.06
2022-11-13T01:28:22.379Z,-0.24
2022-11-13T01:33:43.950Z,-0.14
2022-11-13T01:39:06.777Z,-0.19
2022-11-13T01:44:47.613Z,-0.39
2022-11-13T01:50:15.024Z,-0.35
2022-11-13T01:55:38.094Z,-0.30
2022-11-13T02:00:59.774Z,-0.37
2022-11-13T02:06:21.675Z,-0.37
2022-11-13T02:11:45.078Z,-0.45
2022-11-13T02:17:10.252Z,-0.50
2022-11-13T02:22:37.424Z,-0.85
2022-11-13T02:28:00.562Z,-0.97
2022-11-13T02:33:25.085Z,-0.65
2022-11-13T02:38:47.817Z,-0.84
2022-11-13T02:44:10.802Z,-0.73
2022-11-13T02:49:32.116Z,-0.81
2022-11-13T02:54:53.382Z,-0.77
2022-11-13T03:00:17.028Z,-0.88
2022-11-13T03:05:38.566Z,-1.06
2022-11-13T03:11:00.374Z,-1.26
2022-11-13T03:16:22.999Z,-1.26
2022-11-13T03:21:44.224Z,-1.06
2022-11-13T03:27:05.583Z,-0.95
2022-11-13T03:32:28.401Z,-0.97
2022-11-13T03:37:49.801Z,-0.94
2022-11-13T03:43:11.026Z,-1.06
2022-11-13T03:48:33.865Z,-1.13
2022-11-13T03:53:55.538Z,-1.19
2022-11-13T03:59:16.963Z,-1.22
2022-11-13T04:04:39.560Z,-1.20
2022-11-13T04:10:00.786Z,-1.34
2022-11-13T04:15:22.677Z,-1.44
2022-11-13T04:20:45.521Z,-1.50
2022-11-13T04:26:06.850Z,-1.39
2022-11-13T04:31:28.360Z,-1.66
2022-11-13T04:36:50.872Z,-1.70
2022-11-13T04:42:30.745Z,-1.81
2022-11-13T04:47:52.692Z,-1.83
2022-11-13T04:53:15.470Z,-1.80
2022-11-13T04:58:36.745Z,-1.68
2022-11-13T05:03:58.052Z,-1.88
2022-11-13T05:09:20.877Z,-1.82
2022-11-13T05:14:42.637Z,-1.73
2022-11-13T05:20:03.815Z,-1.90
2022-11-13T05:25:26.582Z,-2.03
2022-11-13T05:30:48.419Z,-1.86
2022-11-13T05:36:11.596Z,-1.84
2022-11-13T05:41:34.159Z,-1.87
2022-11-13T05:46:55.436Z,-1.91
2022-11-13T05:52:16.675Z,-1.94
2022-11-13T05:57:39.377Z,-1.99
2022-11-13T06:03:01.556Z,-1.94
2022-11-13T06:08:23.773Z,-1.97
2022-11-13T06:13:47.137Z,-1.99
2022-11-13T06:19:11.501Z,-2.05
2022-11-13T06:24:32.920Z,-2.03
2022-11-13T06:29:55.553Z,-2.00
2022-11-13T06:35:16.945Z,-2.08
2022-11-13T06:40:39.837Z,-2.01
2022-11-13T06:46:05.732Z,-2.02
2022-11-13T06:51:29.598Z,-1.92
2022-11-13T06:56:51.295Z,-1.94
2022-11-13T07:02:14.091Z,-1.88
2022-11-13T07:07:35.430Z,-2.02
2022-11-13T07:13:00.090Z,-1.87
2022-11-13T07:18:24.302Z,-1.81
2022-11-13T07:23:48.086Z,-1.71
2022-11-13T07:29:09.459Z,-1.67
2022-11-13T07:34:32.413Z,-1.69
2022-11-13T07:39:53.809Z,-1.62
2022-11-13T07:45:15.195Z,-1.53
2022-11-13T07:50:39.486Z,-1.25
2022-11-13T07:56:04.853Z,-1.07
2022-11-13T08:01:26.686Z,-0.60
2022-11-13T08:06:50.001Z,-0.58
2022-11-13T08:12:11.397Z,0.07
2022-11-13T08:17:32.513Z,0.55
2022-11-13T08:22:58.331Z,0.97
2022-11-13T08:28:19.628Z,0.71
2022-11-13T08:33:41.581Z,1.20
2022-11-13T08:39:04.436Z,1.62
2022-11-13T08:44:25.819Z,1.75
2022-11-13T08:49:47.186Z,2.25
2022-11-13T08:55:09.839Z,2.66
2022-11-13T09:00:33.137Z,2.51
2022-11-13T09:05:54.455Z,2.94
2022-11-13T09:11:16.951Z,3.12
2022-11-13T09:16:38.339Z,3.78
2022-11-13T09:22:00.374Z,3.89
2022-11-13T09:27:23.345Z,4.16
2022-11-13T09:32:44.621Z,4.05
2022-11-13T09:38:11.309Z,4.15
2022-11-13T09:43:41.629Z,4.25
2022-11-13T09:49:08.433Z,4.21
2022-11-13T09:54:30.227Z,4.67
2022-11-13T09:59:58.324Z,4.96
2022-11-13T10:05:28.227Z,4.97
2022-11-13T10:10:55.442Z,5.13
2022-11-13T10:16:28.873Z,5.29
2022-11-13T10:22:07.684Z,5.37
2022-11-13T10:27:36.612Z,5.67
2022-11-13T10:33:09.510Z,5.81
2022-11-13T10:38:40.026Z,5.71
2022-11-13T10:44:19.766Z,6.09
2022-11-13T10:49:42.360Z,6.06
2022-11-13T10:55:17.454Z,6.23
2022-11-13T11:00:41.528Z,6.38
2022-11-13T11:06:06.204Z,6.60
2022-11-13T11:11:44.867Z,6.54
2022-11-13T11:17:07.288Z,6.66
2022-11-13T11:22:34.186Z,6.75
2022-11-13T11:28:01.654Z,6.92
2022-11-13T11:33:30.432Z,7.13
2022-11-13T11:38:57.716Z,7.22
2022-11-13T11:44:27.369Z,7.33
2022-11-13T11:49:48.896Z,7.41
2022-11-13T11:55:30.216Z,7.23
2022-11-13T12:00:54.349Z,7.09
2022-11-13T12:06:24.579Z,7.05
2022-11-13T12:11:54.480Z,7.21
2022-11-13T12:17:44.785Z,7.12
2022-11-13T12:23:20.378Z,7.19
2022-11-13T12:28:49.458Z,7.22
2022-11-13T12:34:21.058Z,7.44
2022-11-13T12:39:50.228Z,7.48
2022-11-13T12:45:18.039Z,7.74
2022-11-13T12:50:39.618Z,7.47
2022-11-13T12:56:04.014Z,7.24
2022-11-13T13:01:29.518Z,7.29
2022-11-13T13:07:03.204Z,7.08
2022-11-13T13:12:40.603Z,6.91
2022-11-13T13:18:11.819Z,6.75
2022-11-13T13:23:36.313Z,6.67
2022-11-13T13:29:02.397Z,6.66
2022-11-13T13:34:50.623Z,6.60
2022-11-13T13:40:21.533Z,6.50
2022-11-13T13:45:52.475Z,6.35
2022-11-13T13:51:25.960Z,6.25
2022-11-13T13:56:48.064Z,6.06
2022-11-13T14:02:17.233Z,6.08
2022-11-13T14:07:47.074Z,6.21
2022-11-13T14:13:13.877Z,6.17
2022-11-13T14:18:36.373Z,6.02
2022-11-13T14:24:01.486Z,6.09
2022-11-13T14:29:28.652Z,5.97
2022-11-13T14:34:51.581Z,5.94
2022-11-13T14:40:22.263Z,5.91
2022-11-13T14:45:55.134Z,5.85
2022-11-13T14:51:24.715Z,5.54
2022-11-13T14:56:47.828Z,5.34
2022-11-13T15:02:12.702Z,5.41
2022-11-13T15:07:35.386Z,5.55
2022-11-13T15:12:58.328Z,5.36
2022-11-13T15:18:21.205Z,5.13
2022-11-13T15:23:42.855Z,5.06
2022-11-13T15:29:09.130Z,4.93
2022-11-13T15:34:30.833Z,4.81
2022-11-13T15:39:52.927Z,4.71
2022-11-13T15:45:17.557Z,4.62
2022-11-13T15:50:39.150Z,4.65
2022-11-13T15:56:03.249Z,4.55
2022-11-13T16:01:26.414Z,4.60
2022-11-13T16:06:48.076Z,4.49
2022-11-13T16:12:11.095Z,4.46
2022-11-13T16:17:40.710Z,4.42
2022-11-13T16:23:02.382Z,4.14
2022-11-13T16:28:23.574Z,4.32
2022-11-13T16:33:46.820Z,4.25
2022-11-13T16:39:12.871Z,4.28
2022-11-13T16:44:34.625Z,3.97
2022-11-13T16:49:57.343Z,4.06
2022-11-13T16:55:18.975Z,3.68
2022-11-13T17:00:40.634Z,3.87
2022-11-13T17:06:03.448Z,3.82
2022-11-13T17:11:26.549Z,4.00
2022-11-13T17:16:48.019Z,4.10
2022-11-13T17:22:11.279Z,4.08
2022-11-13T17:27:32.836Z,3.77
2022-11-13T17:32:54.228Z,3.53
2022-11-13T17:38:16.856Z,3.57
2022-11-13T17:43:38.806Z,3.48
2022-11-13T17:49:00.544Z,3.64
2022-11-13T17:54:25.259Z,3.50
2022-11-13T17:59:46.557Z,3.37
2022-11-13T18:05:10.163Z,3.40
2022-11-13T18:10:33.037Z,3.14
2022-11-13T18:15:54.454Z,3.15
2022-11-13T18:21:22.780Z,3.42
2022-11-13T18:26:46.434Z,3.95
2022-11-13T18:32:07.968Z,3.89
2022-11-13T18:37:29.432Z,4.51
2022-11-13T18:42:52.310Z,4.29
2022-11-13T18:48:13.774Z,4.39
2022-11-13T18:53:35.113Z,4.66
2022-11-13T18:58:59.680Z,4.64
2022-11-13T19:04:23.329Z,4.72
2022-11-13T19:09:50.074Z,4.51
2022-11-13T19:15:13.098Z,4.44
2022-11-13T19:20:34.848Z,4.35
2022-11-13T19:25:56.150Z,4.25
2022-11-13T19:31:20.938Z,4.17
2022-11-13T19:36:48.022Z,4.66
2022-11-13T19:42:09.497Z,4.79
2022-11-13T19:47:32.471Z,4.98
2022-11-13T19:52:54.378Z,4.93
2022-11-13T19:58:15.902Z,4.99
2022-11-13T20:03:38.546Z,5.12
2022-11-13T20:09:00.705Z,4.96
2022-11-13T20:14:22.068Z,5.17
2022-11-13T20:19:44.797Z,5.27
2022-11-13T20:25:06.508Z,4.97
2022-11-13T20:30:27.699Z,5.02
2022-11-13T20:35:55.740Z,5.13
2022-11-13T20:41:20.525Z,5.29
2022-11-13T20:46:41.723Z,5.22
2022-11-13T20:52:07.018Z,5.23
2022-11-13T20:57:28.659Z,5.41
2022-11-13T21:02:49.956Z,5.36
2022-11-13T21:08:12.830Z,5.34
2022-11-13T21:13:35.119Z,5.51
2022-11-13T21:18:57.842Z,5.56
2022-11-13T21:24:20.783Z,5.49
2022-11-13T21:29:41.963Z,5.60
2022-11-13T21:35:03.419Z,5.56
2022-11-13T21:40:26.284Z,5.62
2022-11-13T21:45:47.356Z,5.75
2022-11-13T21:51:08.965Z,5.74
2022-11-13T21:56:34.135Z,5.77
2022-11-13T22:01:55.631Z,5.65
2022-11-13T22:07:17.498Z,5.43
2022-11-13T22:12:40.639Z,5.55
2022-11-13T22:18:01.920Z,5.20
2022-11-13T22:23:23.100Z,5.05
2022-11-13T22:28:46.968Z,4.86
2022-11-13T22:34:08.351Z,4.65
2022-11-13T22:39:29.630Z,4.66
2022-11-13T22:44:56.516Z,4.42
2022-11-13T22:50:18.196Z,4.16
2022-11-13T22:55:39.838Z,3.87
2022-11-13T23:01:07.455Z,3.88
2022-11-13T23:06:30.273Z,3.74
2022-11-13T23:11:51.560Z,3.62
2022-11-13T23:17:14.245Z,3.42
2022-11-13T23:22:35.565Z,3.43
2022-11-13T23:27:56.841Z,3.33
2022-11-13T23:33:19.665Z,3.26
2022-11-13T23:38:41.270Z,3.18
2022-11-13T23:44:08.738Z,2.88
2022-11-13T23:49:32.668Z,2.96
2022-11-13T23:54:54.324Z,2.69
